createdAt,value
2022-09-28T00:01:41.343Z,0.40
2022-09-28T00:05:27.058Z,0.50
2022-09-28T00:09:09.879Z,0.50
2022-09-28T00:12:55.548Z,0.40
2022-09-28T00:16:40.109Z,0.60
2022-09-28T00:20:22.951Z,0.40
2022-09-28T00:24:15.931Z,0.50
2022-09-28T00:27:58.634Z,0.57
2022-09-28T00:31:41.405Z,0.30
2022-09-28T00:35:24.143Z,0.40
2022-09-28T00:39:09.736Z,0.50
2022-09-28T00:42:52.449Z,0.30
2022-09-28T00:46:35.972Z,0.30
2022-09-28T00:50:23.283Z,0.50
2022-09-28T00:54:12.052Z,0.40
2022-09-28T00:57:59.266Z,0.30
2022-09-28T01:01:42.347Z,0.43
2022-09-28T01:05:25.815Z,0.50
2022-09-28T01:09:11.171Z,0.43
2022-09-28T01:12:53.962Z,0.30
2022-09-28T01:16:43.061Z,0.33
2022-09-28T01:20:42.103Z,0.40
2022-09-28T01:24:41.480Z,0.47
2022-09-28T01:28:28.452Z,0.47
2022-09-28T01:32:16.497Z,0.40
2022-09-28T01:36:03.331Z,0.50
2022-09-28T01:39:49.479Z,0.50
2022-09-28T01:43:37.196Z,0.40
2022-09-28T01:47:22.078Z,0.47
2022-09-28T01:51:16.018Z,0.50
2022-09-28T01:55:02.249Z,0.50
2022-09-28T01:58:50.322Z,0.60
2022-09-28T02:02:35.295Z,0.50
2022-09-28T02:06:23.177Z,0.30
2022-09-28T02:10:10.422Z,0.43
2022-09-28T02:13:57.673Z,0.50
2022-09-28T02:17:40.616Z,0.57
2022-09-28T02:21:26.932Z,0.50
2022-09-28T02:25:14.537Z,0.50
2022-09-28T02:28:59.305Z,0.50
2022-09-28T02:32:43.562Z,0.50
2022-09-28T02:36:26.949Z,0.50
2022-09-28T02:40:16.522Z,0.57
2022-09-28T02:44:07.097Z,0.40
2022-09-28T02:48:01.475Z,0.40
2022-09-28T02:51:51.295Z,0.50
2022-09-28T02:55:44.652Z,0.50
2022-09-28T02:59:47.844Z,0.40
2022-09-28T03:03:35.465Z,0.50
2022-09-28T03:07:25.551Z,0.60
2022-09-28T03:11:11.348Z,0.50
2022-09-28T03:15:09.337Z,0.53
2022-09-28T03:18:52.024Z,0.40
2022-09-28T03:22:34.773Z,0.73
2022-09-28T03:26:18.048Z,0.60
2022-09-28T03:30:01.053Z,0.70
2022-09-28T03:33:45.144Z,0.70
2022-09-28T03:37:27.917Z,0.53
2022-09-28T03:41:12.470Z,0.40
2022-09-28T03:44:55.381Z,0.47
2022-09-28T03:48:38.066Z,0.53
2022-09-28T03:52:22.079Z,0.30
2022-09-28T03:56:06.551Z,0.43
2022-09-28T03:59:51.962Z,0.50
2022-09-28T04:03:34.940Z,0.70
2022-09-28T04:07:17.595Z,0.80
2022-09-28T04:11:02.545Z,0.80
2022-09-28T04:14:45.262Z,0.50
2022-09-28T04:18:28.077Z,0.60
2022-09-28T04:22:10.766Z,0.80
2022-09-28T04:25:53.540Z,0.63
2022-09-28T04:29:37.804Z,0.70
2022-09-28T04:33:20.575Z,0.60
2022-09-28T04:37:05.055Z,0.80
2022-09-28T04:40:50.138Z,0.80
2022-09-28T04:44:32.901Z,0.70
2022-09-28T04:48:17.384Z,1.70
2022-09-28T04:52:00.091Z,0.90
2022-09-28T04:55:43.273Z,0.67
2022-09-28T04:59:26.005Z,0.43
2022-09-28T05:03:08.676Z,0.57
2022-09-28T05:06:52.710Z,0.67
2022-09-28T05:10:35.570Z,0.87
2022-09-28T05:14:18.276Z,0.60
2022-09-28T05:18:01.751Z,0.70
2022-09-28T05:21:45.991Z,0.50
2022-09-28T05:25:30.070Z,0.57
2022-09-28T05:29:12.824Z,0.60
2022-09-28T05:32:55.551Z,0.80
2022-09-28T05:36:39.146Z,0.80
2022-09-28T05:40:22.108Z,0.93
2022-09-28T05:44:06.258Z,0.80
2022-09-28T05:47:48.922Z,0.73
2022-09-28T05:51:31.608Z,0.90
2022-09-28T05:55:16.998Z,0.90
2022-09-28T05:58:59.882Z,1.00
2022-09-28T06:02:43.950Z,1.00
2022-09-28T06:06:26.739Z,0.90
2022-09-28T06:10:10.061Z,0.70
2022-09-28T06:13:54.697Z,0.70
2022-09-28T06:17:37.412Z,0.90
2022-09-28T06:21:21.542Z,0.70
2022-09-28T06:25:05.484Z,0.60
2022-09-28T06:28:48.212Z,0.80
2022-09-28T06:32:30.911Z,0.70
2022-09-28T06:36:13.691Z,0.60
2022-09-28T06:39:57.823Z,0.80
2022-09-28T06:43:40.587Z,1.10
2022-09-28T06:47:23.234Z,0.80
2022-09-28T06:51:07.110Z,0.80
2022-09-28T06:54:49.764Z,0.70
2022-09-28T06:58:33.815Z,0.70
2022-09-28T07:02:16.684Z,0.80
2022-09-28T07:05:59.418Z,0.80
2022-09-28T07:09:46.522Z,0.77
2022-09-28T07:13:49.538Z,1.00
2022-09-28T07:17:38.177Z,0.73
2022-09-28T07:21:29.603Z,0.43
2022-09-28T07:25:14.224Z,1.10
2022-09-28T07:28:58.313Z,0.87
2022-09-28T07:32:41.126Z,1.10
2022-09-28T07:36:23.854Z,0.90
2022-09-28T07:40:25.471Z,0.60
2022-09-28T07:44:09.827Z,0.70
2022-09-28T07:47:58.648Z,0.60
2022-09-28T07:51:43.550Z,0.50
2022-09-28T07:55:26.429Z,1.30
2022-09-28T07:59:10.615Z,0.80
2022-09-28T08:02:53.329Z,0.60
2022-09-28T08:06:36.060Z,0.60
2022-09-28T08:10:19.483Z,0.40
2022-09-28T08:14:02.276Z,0.70
2022-09-28T08:17:49.207Z,0.70
2022-09-28T08:21:47.289Z,0.50
2022-09-28T08:25:29.942Z,0.40
2022-09-28T08:29:12.621Z,0.30
2022-09-28T08:32:56.717Z,0.40
2022-09-28T08:36:39.516Z,0.50
2022-09-28T08:40:24.757Z,0.40
2022-09-28T08:44:23.683Z,0.33
2022-09-28T08:48:31.259Z,0.40
2022-09-28T08:52:17.922Z,0.40
2022-09-28T08:56:03.900Z,0.40
2022-09-28T08:59:53.331Z,0.47
2022-09-28T09:03:39.746Z,0.40
2022-09-28T09:07:40.448Z,0.70
2022-09-28T09:11:32.153Z,0.63
2022-09-28T09:15:22.759Z,0.60
2022-09-28T09:19:16.976Z,0.70
2022-09-28T09:23:00.916Z,0.53
2022-09-28T09:27:21.923Z,1.10
2022-09-28T09:31:09.831Z,0.70
2022-09-28T09:35:14.556Z,0.80
2022-09-28T09:39:08.357Z,1.10
2022-09-28T09:43:01.127Z,1.00
2022-09-28T09:46:47.240Z,0.90
2022-09-28T09:50:35.236Z,0.80
2022-09-28T09:54:22.468Z,1.00
2022-09-28T09:58:10.241Z,0.93
2022-09-28T10:01:53.466Z,1.00
2022-09-28T10:05:38.071Z,1.00
2022-09-28T10:09:24.918Z,1.00
2022-09-28T10:13:07.784Z,0.60
2022-09-28T10:16:52.567Z,0.77
2022-09-28T10:20:38.585Z,0.70
2022-09-28T10:24:29.424Z,0.80
2022-09-28T10:28:20.139Z,1.23
2022-09-28T10:32:03.237Z,0.80
2022-09-28T10:35:47.873Z,0.70
2022-09-28T10:39:33.519Z,0.90
2022-09-28T10:43:21.835Z,1.80
2022-09-28T10:47:07.954Z,1.20
2022-09-28T10:51:04.852Z,1.00
2022-09-28T10:54:55.910Z,0.70
2022-09-28T10:58:40.502Z,1.10
2022-09-28T11:02:26.864Z,0.90
2022-09-28T11:06:11.093Z,1.20
2022-09-28T11:09:55.049Z,1.03
2022-09-28T11:13:48.266Z,0.70
2022-09-28T11:17:32.914Z,0.90
2022-09-28T11:21:18.740Z,0.90
2022-09-28T11:25:21.180Z,1.10
2022-09-28T11:29:04.009Z,1.13
2022-09-28T11:32:46.770Z,1.10
2022-09-28T11:36:48.750Z,0.90
2022-09-28T11:40:43.303Z,0.90
2022-09-28T11:44:38.323Z,0.97
2022-09-28T11:48:24.714Z,1.00
2022-09-28T11:52:14.759Z,1.00
2022-09-28T11:56:03.299Z,0.90
2022-09-28T11:59:56.355Z,0.90
2022-09-28T12:03:43.225Z,1.30
2022-09-28T12:07:33.674Z,1.17
2022-09-28T12:11:19.176Z,1.00
2022-09-28T12:15:06.068Z,0.97
2022-09-28T12:18:51.868Z,4.50
2022-09-28T12:22:40.689Z,2.80
2022-09-28T12:26:29.382Z,1.40
2022-09-28T12:30:19.246Z,0.90
2022-09-28T12:34:02.657Z,2.07
2022-09-28T12:38:00.416Z,0.97
2022-09-28T12:41:51.636Z,1.10
2022-09-28T12:46:11.978Z,1.60
2022-09-28T12:50:38.044Z,1.60
2022-09-28T12:54:26.197Z,1.30
2022-09-28T12:58:22.961Z,1.30
2022-09-28T13:02:31.558Z,1.37
2022-09-28T13:06:33.928Z,1.80
2022-09-28T13:10:26.131Z,1.47
2022-09-28T13:14:23.807Z,1.40
2022-09-28T13:18:12.065Z,1.10
2022-09-28T13:22:00.415Z,1.23
2022-09-28T13:25:50.989Z,1.63
2022-09-28T13:29:34.996Z,1.57
2022-09-28T13:33:23.870Z,1.73
2022-09-28T13:37:20.880Z,1.60
2022-09-28T13:41:18.955Z,1.70
2022-09-28T13:45:24.817Z,1.40
2022-09-28T13:49:12.316Z,3.93
2022-09-28T13:53:03.858Z,2.00
2022-09-28T13:56:53.664Z,1.40
2022-09-28T14:00:43.344Z,1.30
2022-09-28T14:04:28.394Z,1.40
2022-09-28T14:08:29.064Z,1.47
2022-09-28T14:12:45.835Z,1.50
2022-09-28T14:16:31.088Z,1.40
2022-09-28T14:20:16.211Z,1.70
2022-09-28T14:24:09.439Z,1.80
2022-09-28T14:28:03.276Z,1.93
2022-09-28T14:31:45.945Z,1.53
2022-09-28T14:35:32.309Z,1.70
2022-09-28T14:39:37.316Z,1.80
2022-09-28T14:43:28.118Z,2.10
2022-09-28T14:47:26.515Z,1.70
2022-09-28T14:51:42.361Z,1.80
2022-09-28T14:55:28.881Z,1.73
2022-09-28T14:59:15.775Z,1.60
2022-09-28T15:03:01.614Z,1.77
2022-09-28T15:06:48.751Z,2.00
2022-09-28T15:10:33.051Z,1.90
2022-09-28T15:14:17.955Z,2.23
2022-09-28T15:18:08.587Z,2.03
2022-09-28T15:21:51.666Z,1.90
2022-09-28T15:25:35.866Z,2.10
2022-09-28T15:29:21.042Z,2.30
2022-09-28T15:33:19.145Z,2.10
2022-09-28T15:37:06.434Z,1.70
2022-09-28T15:40:50.278Z,1.47
2022-09-28T15:44:37.062Z,1.50
2022-09-28T15:48:23.060Z,1.80
2022-09-28T15:52:06.112Z,1.57
2022-09-28T15:55:51.294Z,1.77
2022-09-28T15:59:36.993Z,2.30
2022-09-28T16:03:24.875Z,2.70
2022-09-28T16:07:21.718Z,2.50
2022-09-28T16:11:12.095Z,2.70
2022-09-28T16:14:56.921Z,2.87
2022-09-28T16:18:40.220Z,3.67
2022-09-28T16:22:28.112Z,3.30
2022-09-28T16:26:16.631Z,3.03
2022-09-28T16:30:17.372Z,2.77
2022-09-28T16:34:02.291Z,2.37
2022-09-28T16:37:45.361Z,1.90
2022-09-28T16:41:28.922Z,2.57
2022-09-28T16:45:20.324Z,2.40
2022-09-28T16:49:03.563Z,2.40
2022-09-28T16:53:03.720Z,3.00
2022-09-28T16:56:46.450Z,2.47
2022-09-28T17:00:30.479Z,2.60
2022-09-28T17:04:13.137Z,2.90
2022-09-28T17:08:01.016Z,2.90
2022-09-28T17:11:44.405Z,2.30
2022-09-28T17:15:27.123Z,2.40
2022-09-28T17:19:19.547Z,2.13
2022-09-28T17:23:02.468Z,2.80
2022-09-28T17:26:46.095Z,3.20
2022-09-28T17:30:28.842Z,2.70
2022-09-28T17:34:12.607Z,3.20
2022-09-28T17:37:56.752Z,2.97
2022-09-28T17:41:39.739Z,2.67
2022-09-28T17:45:22.737Z,2.93
2022-09-28T17:49:07.265Z,3.10
2022-09-28T17:52:52.313Z,3.17
2022-09-28T17:56:36.918Z,3.23
2022-09-28T18:00:19.933Z,3.20
2022-09-28T18:04:03.284Z,3.00
2022-09-28T18:07:47.762Z,3.13
2022-09-28T18:11:30.956Z,3.10
2022-09-28T18:15:16.098Z,2.87
2022-09-28T18:18:59.349Z,2.80
2022-09-28T18:22:42.084Z,2.87
2022-09-28T18:26:24.780Z,2.70
2022-09-28T18:30:08.551Z,2.13
2022-09-28T18:33:59.099Z,2.40
2022-09-28T18:37:42.902Z,2.20
2022-09-28T18:41:25.663Z,1.70
2022-09-28T18:45:11.180Z,1.60
2022-09-28T18:48:55.246Z,1.60
2022-09-28T18:52:38.003Z,1.17
2022-09-28T18:56:20.967Z,1.50
2022-09-28T19:00:06.816Z,1.53
2022-09-28T19:03:52.316Z,2.10
2022-09-28T19:07:36.495Z,1.70
2022-09-28T19:11:19.340Z,1.30
2022-09-28T19:15:02.048Z,1.50
2022-09-28T19:18:45.008Z,2.27
2022-09-28T19:22:28.343Z,2.57
2022-09-28T19:26:14.167Z,1.77
2022-09-28T19:29:56.809Z,2.53
2022-09-28T19:33:40.527Z,1.70
2022-09-28T19:37:23.238Z,1.87
2022-09-28T19:41:09.667Z,1.80
2022-09-28T19:44:53.901Z,1.40
2022-09-28T19:48:36.726Z,1.10
2022-09-28T19:52:19.423Z,1.30
2022-09-28T19:56:03.790Z,1.10
2022-09-28T19:59:52.548Z,1.13
2022-09-28T20:03:38.580Z,1.27
2022-09-28T20:07:21.771Z,1.60
2022-09-28T20:11:05.479Z,1.63
2022-09-28T20:14:48.140Z,1.50
2022-09-28T20:18:34.691Z,1.40
2022-09-28T20:22:19.792Z,1.20
2022-09-28T20:26:02.517Z,1.40
2022-09-28T20:29:45.192Z,1.20
2022-09-28T20:33:29.045Z,0.87
2022-09-28T20:37:13.667Z,1.27
2022-09-28T20:41:00.670Z,0.90
2022-09-28T20:44:43.418Z,9.73
2022-09-28T20:48:26.627Z,1.10
2022-09-28T20:52:09.298Z,1.23
2022-09-28T20:56:00.090Z,1.50
2022-09-28T20:59:42.735Z,1.40
2022-09-28T21:03:25.880Z,1.40
2022-09-28T21:07:08.867Z,1.10
2022-09-28T21:10:52.667Z,1.33
2022-09-28T21:14:36.690Z,1.10
2022-09-28T21:18:20.120Z,1.10
2022-09-28T21:22:02.825Z,0.90
2022-09-28T21:25:46.501Z,1.10
2022-09-28T21:29:29.438Z,1.00
2022-09-28T21:33:13.456Z,1.00
2022-09-28T21:36:57.893Z,1.00
2022-09-28T21:40:41.034Z,1.07
2022-09-28T21:44:23.846Z,1.23
2022-09-28T21:48:06.586Z,2.27
2022-09-28T21:51:51.727Z,1.40
2022-09-28T21:55:34.403Z,1.30
2022-09-28T21:59:17.059Z,1.20
2022-09-28T22:02:59.973Z,1.00
2022-09-28T22:06:42.711Z,0.83
2022-09-28T22:10:26.777Z,0.90
2022-09-28T22:14:11.004Z,0.80
2022-09-28T22:17:53.763Z,0.90
2022-09-28T22:21:36.425Z,1.03
2022-09-28T22:25:19.288Z,0.90
2022-09-28T22:29:05.066Z,1.00
2022-09-28T22:32:48.131Z,0.83
2022-09-28T22:36:31.321Z,0.90
2022-09-28T22:40:14.513Z,1.10
2022-09-28T22:43:57.467Z,0.97
2022-09-28T22:47:41.517Z,1.27
2022-09-28T22:51:25.198Z,1.03
2022-09-28T22:55:08.507Z,1.00
2022-09-28T22:58:51.221Z,1.13
2022-09-28T23:02:33.998Z,1.27
2022-09-28T23:06:21.091Z,1.33
2022-09-28T23:10:03.883Z,1.20
2022-09-28T23:13:49.932Z,1.50
2022-09-28T23:17:42.670Z,1.47
2022-09-28T23:21:28.104Z,1.40
2022-09-28T23:25:11.108Z,1.80
2022-09-28T23:28:54.910Z,1.60
2022-09-28T23:32:46.533Z,1.90
2022-09-28T23:36:30.867Z,1.60
2022-09-28T23:40:13.632Z,1.80
2022-09-28T23:43:56.443Z,1.53
2022-09-28T23:47:51.716Z,1.80
2022-09-28T23:51:35.819Z,1.60
2022-09-28T23:55:21.145Z,1.60
2022-09-28T23:59:06.293Z,1.30
